Station: EHBK - 22/10/2021 10:25Z (il y a 12 minutes)
EHBK 221025Z AUTO 24014KT 200V290 9999 SCT022 SCT025 11/06 Q1017 TEMPO 25017G27KT
Vent du 240º - 14 kt (vent de direction variable de 200º à 290º)
Visibilité > 10 km
Ciel 50% couvert à 2200 pieds - Ciel 50% couvert à 2500 pieds
Température: +11ºC - Point de rosée: +06ºC - QNH: 1017 hPa
Temporairement
Vent du 250º - 17 kt - rafales 27 kt